createdAt,value
2023-02-05T00:00:02.829Z,-1.30
2023-02-05T00:02:31.241Z,-1.20
2023-02-05T00:04:59.689Z,-1.20
2023-02-05T00:07:28.063Z,-1.10
2023-02-05T00:09:56.322Z,-1.10
2023-02-05T00:12:24.719Z,-1.10
2023-02-05T00:14:54.452Z,-1.00
2023-02-05T00:17:22.910Z,-1.10
2023-02-05T00:19:51.368Z,-1.00
2023-02-05T00:22:20.046Z,-1.10
2023-02-05T00:24:48.742Z,-1.10
2023-02-05T00:27:17.344Z,-1.10
2023-02-05T00:29:45.740Z,-1.10
2023-02-05T00:32:15.463Z,-1.10
2023-02-05T00:34:43.831Z,-1.10
2023-02-05T00:37:12.665Z,-1.10
2023-02-05T00:39:41.176Z,-1.10
2023-02-05T00:42:09.485Z,-1.10
2023-02-05T00:44:37.954Z,-1.20
2023-02-05T00:47:06.420Z,-1.30
2023-02-05T00:49:36.240Z,-1.30
2023-02-05T00:52:05.171Z,-1.30
2023-02-05T00:54:33.563Z,-1.30
2023-02-05T00:57:03.010Z,-1.40
2023-02-05T00:59:31.484Z,-1.50
2023-02-05T01:01:59.877Z,-1.50
2023-02-05T01:04:28.324Z,-1.50
2023-02-05T01:06:58.014Z,-1.60
2023-02-05T01:09:26.337Z,-1.60
2023-02-05T01:11:55.358Z,-1.60
2023-02-05T01:14:23.712Z,-1.70
2023-02-05T01:16:52.082Z,-1.80
2023-02-05T01:19:20.747Z,-1.80
2023-02-05T01:21:49.146Z,-1.70
2023-02-05T01:24:19.071Z,-1.70
2023-02-05T01:26:48.726Z,-1.70
2023-02-05T01:29:17.113Z,-1.80
2023-02-05T01:31:45.481Z,-1.90
2023-02-05T01:34:13.934Z,-1.90
2023-02-05T01:36:42.283Z,-2.00
2023-02-05T01:39:11.104Z,-2.10
2023-02-05T01:41:42.720Z,-2.20
2023-02-05T01:44:13.905Z,-2.30
2023-02-05T01:46:45.446Z,-2.40
2023-02-05T01:49:24.520Z,-2.40
2023-02-05T01:51:56.655Z,-2.50
2023-02-05T01:54:29.551Z,-2.70
2023-02-05T01:57:06.141Z,-2.80
2023-02-05T01:59:40.081Z,-2.70
2023-02-05T02:02:09.031Z,-2.60
2023-02-05T02:04:42.822Z,-2.60
2023-02-05T02:07:17.090Z,-2.60
2023-02-05T02:09:48.112Z,-2.70
2023-02-05T02:12:24.159Z,-2.70
2023-02-05T02:14:57.850Z,-2.70
2023-02-05T02:17:29.937Z,-2.80
2023-02-05T02:20:05.128Z,-2.90
2023-02-05T02:22:59.085Z,-2.80
2023-02-05T02:26:35.512Z,-2.80
2023-02-05T02:29:06.268Z,-2.70
2023-02-05T02:31:43.287Z,-2.70
2023-02-05T02:34:19.618Z,-2.90
2023-02-05T02:36:58.107Z,-3.10
2023-02-05T02:39:33.688Z,-3.10
2023-02-05T02:42:09.479Z,-3.20
2023-02-05T02:44:48.564Z,-3.30
2023-02-05T02:47:22.390Z,-3.30
2023-02-05T02:49:58.857Z,-3.30
2023-02-05T02:52:31.123Z,-3.30
2023-02-05T02:55:05.573Z,-3.30
2023-02-05T02:57:38.663Z,-3.30
2023-02-05T03:00:17.529Z,-3.30
2023-02-05T03:02:49.223Z,-3.40
2023-02-05T03:05:23.618Z,-3.30
2023-02-05T03:07:59.257Z,-3.30
2023-02-05T03:10:37.023Z,-3.30
2023-02-05T03:13:05.450Z,-3.40
2023-02-05T03:15:35.802Z,-3.40
2023-02-05T03:18:04.917Z,-3.40
2023-02-05T03:20:43.185Z,-3.40
2023-02-05T03:23:11.638Z,-3.30
2023-02-05T03:25:40.069Z,-3.30
2023-02-05T03:28:08.721Z,-3.30
2023-02-05T03:30:50.460Z,-3.20
2023-02-05T03:33:39.326Z,-3.10
2023-02-05T03:36:21.815Z,-3.00
2023-02-05T03:39:19.819Z,-2.90
2023-02-05T03:41:59.420Z,-2.70
2023-02-05T03:45:07.857Z,-2.70
2023-02-05T03:47:53.090Z,-2.80
2023-02-05T03:50:30.602Z,-2.80
2023-02-05T03:53:09.935Z,-2.70
2023-02-05T03:55:47.150Z,-2.70
2023-02-05T03:58:22.288Z,-2.80
2023-02-05T04:00:51.197Z,-2.80
2023-02-05T04:03:21.096Z,-2.90
2023-02-05T04:05:49.562Z,-3.00
2023-02-05T04:08:18.066Z,-3.00
2023-02-05T04:10:46.433Z,-3.10
2023-02-05T04:13:14.764Z,-3.00
2023-02-05T04:15:43.185Z,-3.00
2023-02-05T04:18:11.554Z,-2.80
2023-02-05T04:20:41.347Z,-2.70
2023-02-05T04:23:09.719Z,-2.60
2023-02-05T04:25:38.709Z,-2.60
2023-02-05T04:28:08.241Z,-2.70
2023-02-05T04:30:36.742Z,-2.60
2023-02-05T04:33:05.358Z,-2.60
2023-02-05T04:35:34.062Z,-2.70
2023-02-05T04:38:05.196Z,-2.60
2023-02-05T04:40:33.616Z,-2.60
2023-02-05T04:43:02.085Z,-2.60
2023-02-05T04:45:33.610Z,-2.70
2023-02-05T04:48:03.166Z,-2.70
2023-02-05T04:50:31.495Z,-2.70
2023-02-05T04:53:02.167Z,-2.60
2023-02-05T04:55:33.829Z,-2.50
2023-02-05T04:58:02.475Z,-2.40
2023-02-05T05:00:30.868Z,-2.50
2023-02-05T05:02:59.468Z,-2.40
2023-02-05T05:05:28.090Z,-2.40
2023-02-05T05:07:56.467Z,-2.40
2023-02-05T05:10:24.766Z,-2.40
2023-02-05T05:12:54.617Z,-2.40
2023-02-05T05:15:22.995Z,-2.40
2023-02-05T05:17:51.382Z,-2.40
2023-02-05T05:20:22.791Z,-2.50
2023-02-05T05:22:51.226Z,-2.50
2023-02-05T05:25:19.817Z,-2.60
2023-02-05T05:27:48.259Z,-2.50
2023-02-05T05:30:18.255Z,-2.40
2023-02-05T05:32:46.661Z,-2.40
2023-02-05T05:35:15.197Z,-2.30
2023-02-05T05:37:43.631Z,-2.30
2023-02-05T05:40:31.675Z,-2.30
2023-02-05T05:43:17.752Z,-2.30
2023-02-05T05:45:47.528Z,-2.30
2023-02-05T05:48:15.934Z,-2.20
2023-02-05T05:50:44.327Z,-2.20
2023-02-05T05:53:12.778Z,-2.20
2023-02-05T05:55:42.023Z,-2.30
2023-02-05T05:58:11.232Z,-2.20
2023-02-05T06:00:42.768Z,-2.20
2023-02-05T06:03:14.054Z,-2.10
2023-02-05T06:05:42.436Z,-2.10
2023-02-05T06:08:10.865Z,-2.00
2023-02-05T06:10:39.195Z,-2.00
2023-02-05T06:13:07.640Z,-2.00
2023-02-05T06:15:36.424Z,-2.00
2023-02-05T06:18:05.410Z,-2.00
2023-02-05T06:20:35.135Z,-1.90
2023-02-05T06:23:03.517Z,-1.90
2023-02-05T06:25:32.184Z,-1.80
2023-02-05T06:28:00.914Z,-1.80
2023-02-05T06:30:29.586Z,-1.80
2023-02-05T06:32:58.116Z,-1.80
2023-02-05T06:35:26.476Z,-1.80
2023-02-05T06:37:56.327Z,-1.80
2023-02-05T06:40:25.944Z,-1.80
2023-02-05T06:42:54.851Z,-1.80
2023-02-05T06:45:23.913Z,-1.80
2023-02-05T06:47:55.975Z,-1.80
2023-02-05T06:50:24.713Z,-1.80
2023-02-05T06:52:53.405Z,-1.80
2023-02-05T06:55:23.220Z,-1.80
2023-02-05T06:57:51.667Z,-1.80
2023-02-05T07:00:20.879Z,-1.80
2023-02-05T07:02:49.431Z,-1.80
2023-02-05T07:05:17.889Z,-1.80
2023-02-05T07:07:46.931Z,-1.70
2023-02-05T07:10:16.806Z,-1.70
2023-02-05T07:12:46.873Z,-1.60
2023-02-05T07:15:15.173Z,-1.60
2023-02-05T07:17:43.640Z,-1.50
2023-02-05T07:20:12.803Z,-1.50
2023-02-05T07:22:42.018Z,-1.40
2023-02-05T07:25:10.462Z,-1.40
2023-02-05T07:27:38.852Z,-1.40
2023-02-05T07:30:10.761Z,-1.40
2023-02-05T07:32:39.336Z,-1.40
2023-02-05T07:35:08.279Z,-1.40
2023-02-05T07:37:37.443Z,-1.30
2023-02-05T07:40:07.248Z,-1.30
2023-02-05T07:42:36.680Z,-1.30
2023-02-05T07:45:05.915Z,-1.30
2023-02-05T07:47:35.735Z,-1.30
2023-02-05T07:50:06.242Z,-1.30
2023-02-05T07:52:35.091Z,-1.30
2023-02-05T07:55:03.526Z,-1.20
2023-02-05T07:57:31.936Z,-1.10
2023-02-05T08:00:00.238Z,-1.10
2023-02-05T08:02:29.535Z,-1.10
2023-02-05T08:04:59.289Z,-1.10
2023-02-05T08:07:27.736Z,-1.10
2023-02-05T08:09:56.167Z,-1.10
2023-02-05T08:12:24.501Z,-1.00
2023-02-05T08:14:53.784Z,-1.00
2023-02-05T08:17:22.160Z,-1.00
2023-02-05T08:19:52.492Z,-0.90
2023-02-05T08:22:23.764Z,-0.90
2023-02-05T08:24:52.230Z,-0.80
2023-02-05T08:27:20.994Z,-0.80
2023-02-05T08:29:50.493Z,-0.70
2023-02-05T08:32:19.150Z,-0.60
2023-02-05T08:34:47.564Z,-0.60
2023-02-05T08:37:15.901Z,-0.60
2023-02-05T08:39:46.431Z,-0.50
2023-02-05T08:42:14.816Z,-0.50
2023-02-05T08:44:43.444Z,-0.50
2023-02-05T08:47:12.248Z,-0.40
2023-02-05T08:49:40.594Z,-0.30
2023-02-05T08:52:08.984Z,-0.30
2023-02-05T08:54:37.456Z,-0.30
2023-02-05T08:57:07.280Z,-0.30
2023-02-05T08:59:35.791Z,-0.30
2023-02-05T09:02:05.099Z,-0.20
2023-02-05T09:04:33.631Z,-0.20
2023-02-05T09:07:01.956Z,-0.20
2023-02-05T09:09:30.611Z,-0.20
2023-02-05T09:11:59.723Z,-0.20
2023-02-05T09:14:36.116Z,-0.10
2023-02-05T09:17:04.751Z,0.00
2023-02-05T09:19:36.033Z,0.00
2023-02-05T09:22:05.016Z,0.00
2023-02-05T09:24:33.607Z,0.10
2023-02-05T09:27:02.077Z,0.10
2023-02-05T09:29:32.919Z,0.10
2023-02-05T09:32:01.281Z,0.10
2023-02-05T09:34:29.662Z,0.00
2023-02-05T09:36:57.946Z,0.10
2023-02-05T09:40:12.292Z,0.10
2023-02-05T09:42:32.705Z,0.00
2023-02-05T09:45:26.578Z,0.00
2023-02-05T09:48:07.968Z,0.10
2023-02-05T09:50:38.156Z,0.20
2023-02-05T09:53:13.138Z,0.20
2023-02-05T09:55:46.104Z,0.30
2023-02-05T09:58:20.814Z,0.30
2023-02-05T10:00:57.139Z,0.50
2023-02-05T10:03:33.274Z,0.60
2023-02-05T10:06:24.969Z,0.90
2023-02-05T10:09:02.528Z,1.30
2023-02-05T10:11:43.252Z,1.80
2023-02-05T10:14:27.948Z,2.20
2023-02-05T10:17:22.286Z,2.40
2023-02-05T10:20:32.739Z,2.40
2023-02-05T10:23:16.996Z,2.10
2023-02-05T10:26:08.269Z,1.90
2023-02-05T10:29:18.265Z,1.80
2023-02-05T10:32:04.994Z,1.70
2023-02-05T10:34:53.988Z,1.60
2023-02-05T10:37:39.633Z,1.60
2023-02-05T10:40:21.931Z,1.50
2023-02-05T10:42:56.243Z,1.50
2023-02-05T10:45:28.740Z,1.60
2023-02-05T10:48:26.541Z,1.80
2023-02-05T10:51:01.577Z,2.00
2023-02-05T10:53:31.616Z,2.00
2023-02-05T10:56:03.649Z,2.10
2023-02-05T10:58:48.976Z,2.00
2023-02-05T11:01:21.252Z,1.80
2023-02-05T11:04:02.153Z,1.80
2023-02-05T11:06:39.123Z,1.90
2023-02-05T11:09:32.500Z,1.90
2023-02-05T11:12:04.512Z,1.90
2023-02-05T11:14:37.140Z,2.00
2023-02-05T11:17:10.145Z,2.00
2023-02-05T11:19:41.555Z,2.00
2023-02-05T11:22:31.922Z,1.90
2023-02-05T11:25:17.272Z,2.20
2023-02-05T11:27:56.067Z,2.30
2023-02-05T11:30:49.959Z,2.30
2023-02-05T11:33:35.154Z,2.20
2023-02-05T11:36:09.585Z,2.20
2023-02-05T11:38:48.181Z,2.20
2023-02-05T11:41:30.028Z,2.30
2023-02-05T11:44:02.516Z,2.50
2023-02-05T11:46:45.412Z,2.60
2023-02-05T11:49:24.460Z,2.60
2023-02-05T11:51:59.409Z,2.50
2023-02-05T11:54:32.735Z,2.60
2023-02-05T11:57:07.254Z,2.60
2023-02-05T11:59:37.920Z,2.70
2023-02-05T12:02:33.033Z,2.60
2023-02-05T12:05:18.846Z,2.60
2023-02-05T12:07:56.734Z,2.60
2023-02-05T12:10:38.650Z,2.40
2023-02-05T12:13:23.663Z,2.30
2023-02-05T12:16:09.440Z,2.20
2023-02-05T12:18:58.784Z,2.30
2023-02-05T12:21:43.519Z,2.30
2023-02-05T12:24:49.622Z,2.30
2023-02-05T12:27:38.613Z,2.40
2023-02-05T12:30:42.198Z,2.30
2023-02-05T12:33:40.970Z,2.30
2023-02-05T12:36:32.685Z,2.20
2023-02-05T12:39:20.735Z,2.10
2023-02-05T12:42:02.362Z,2.20
2023-02-05T12:44:51.666Z,2.10
2023-02-05T12:47:48.555Z,2.10
2023-02-05T12:50:53.587Z,2.20
2023-02-05T12:53:53.206Z,2.10
2023-02-05T12:56:46.423Z,2.20
2023-02-05T12:59:24.925Z,2.20
2023-02-05T13:02:00.984Z,2.30
2023-02-05T13:04:43.327Z,2.40
2023-02-05T13:07:24.315Z,2.40
2023-02-05T13:10:01.353Z,2.50
2023-02-05T13:12:36.685Z,2.50
2023-02-05T13:15:18.788Z,2.50
2023-02-05T13:18:00.464Z,2.40
2023-02-05T13:20:56.109Z,2.40
2023-02-05T13:23:43.555Z,2.30
2023-02-05T13:26:34.668Z,2.40
2023-02-05T13:29:11.734Z,2.60
2023-02-05T13:31:48.611Z,3.20
2023-02-05T13:34:21.761Z,3.20
2023-02-05T13:37:29.649Z,3.30
2023-02-05T13:40:44.998Z,3.20
2023-02-05T13:44:23.378Z,3.10
2023-02-05T13:47:42.720Z,2.80
2023-02-05T13:50:43.202Z,2.50
2023-02-05T13:53:43.248Z,2.30
2023-02-05T13:56:44.583Z,2.30
2023-02-05T13:59:23.678Z,2.10
2023-02-05T14:01:57.969Z,2.10
2023-02-05T14:04:41.691Z,2.10
2023-02-05T14:07:23.911Z,2.10
2023-02-05T14:09:56.700Z,2.20
2023-02-05T14:12:28.601Z,2.30
2023-02-05T14:15:37.822Z,2.30
2023-02-05T14:18:35.312Z,2.20
2023-02-05T14:22:07.458Z,2.10
2023-02-05T14:24:49.471Z,2.00
2023-02-05T14:27:49.811Z,1.80
2023-02-05T14:30:51.845Z,1.70
2023-02-05T14:33:45.023Z,1.70
2023-02-05T14:36:39.782Z,1.70
2023-02-05T14:39:22.993Z,1.70
2023-02-05T14:41:59.076Z,1.70
2023-02-05T14:44:32.772Z,1.60
2023-02-05T14:47:10.273Z,1.60
2023-02-05T14:49:44.140Z,1.50
2023-02-05T14:52:29.016Z,1.50
2023-02-05T14:55:03.402Z,1.40
2023-02-05T14:57:43.831Z,1.40
2023-02-05T15:00:41.820Z,1.40
2023-02-05T15:03:38.104Z,1.40
2023-02-05T15:06:15.927Z,1.30
2023-02-05T15:08:53.955Z,1.30
2023-02-05T15:11:38.326Z,1.30
2023-02-05T15:14:41.701Z,1.20
2023-02-05T15:17:52.219Z,1.20
2023-02-05T15:20:32.529Z,1.30
2023-02-05T15:23:16.480Z,1.20
2023-02-05T15:25:54.827Z,1.10
2023-02-05T15:28:32.321Z,1.10
2023-02-05T15:31:22.844Z,1.00
2023-02-05T15:34:03.445Z,0.80
2023-02-05T15:36:38.727Z,0.60
2023-02-05T15:39:35.525Z,0.50
2023-02-05T15:42:07.345Z,0.20
2023-02-05T15:44:37.768Z,0.10
2023-02-05T15:47:15.323Z,-0.10
2023-02-05T15:49:49.008Z,-0.20
2023-02-05T15:52:22.821Z,-0.20
2023-02-05T15:54:54.544Z,-0.30
2023-02-05T15:57:28.748Z,-0.30
2023-02-05T15:59:59.518Z,-0.30
2023-02-05T16:02:31.445Z,-0.30
2023-02-05T16:05:03.656Z,-0.20
2023-02-05T16:07:41.550Z,-0.10
2023-02-05T16:10:19.387Z,0.00
2023-02-05T16:13:01.776Z,0.00
2023-02-05T16:15:37.103Z,0.10
2023-02-05T16:18:14.396Z,0.20
2023-02-05T16:20:50.721Z,0.30
2023-02-05T16:23:27.209Z,0.40
2023-02-05T16:26:01.774Z,0.40
2023-02-05T16:28:41.209Z,0.50
2023-02-05T16:31:19.074Z,0.50
2023-02-05T16:33:55.524Z,0.50
2023-02-05T16:36:26.892Z,0.50
2023-02-05T16:38:59.462Z,0.60
2023-02-05T16:41:32.541Z,0.60
2023-02-05T16:44:06.387Z,0.60
2023-02-05T16:46:37.546Z,0.60
2023-02-05T16:49:33.279Z,0.60
2023-02-05T16:52:01.633Z,0.60
2023-02-05T16:54:34.915Z,0.70
2023-02-05T16:57:12.840Z,0.70
2023-02-05T16:59:52.725Z,0.70
2023-02-05T17:02:36.730Z,0.70
2023-02-05T17:05:09.602Z,0.70
2023-02-05T17:07:38.097Z,0.70
2023-02-05T17:10:18.231Z,0.70
2023-02-05T17:12:56.778Z,0.70
2023-02-05T17:15:40.185Z,0.80
2023-02-05T17:18:28.946Z,0.70
2023-02-05T17:21:23.156Z,0.70
2023-02-05T17:23:52.307Z,0.70
2023-02-05T17:26:22.108Z,0.70
2023-02-05T17:28:55.295Z,0.70
2023-02-05T17:31:26.575Z,0.70
2023-02-05T17:33:58.566Z,0.70
2023-02-05T17:36:27.434Z,0.70
2023-02-05T17:39:01.671Z,0.70
2023-02-05T17:41:55.626Z,0.70
2023-02-05T17:44:25.260Z,0.70
2023-02-05T17:46:55.310Z,0.70
2023-02-05T17:49:23.837Z,0.60
2023-02-05T17:51:52.256Z,0.60
2023-02-05T17:54:23.147Z,0.60
2023-02-05T17:56:53.753Z,0.60
2023-02-05T17:59:26.077Z,0.60
2023-02-05T18:01:55.852Z,0.60
2023-02-05T18:04:24.328Z,0.60
2023-02-05T18:06:53.968Z,0.70
2023-02-05T18:09:22.490Z,0.70
2023-02-05T18:11:51.122Z,0.70
2023-02-05T18:14:19.860Z,0.70
2023-02-05T18:16:48.539Z,0.80
2023-02-05T18:19:18.663Z,0.80
2023-02-05T18:21:47.312Z,0.80
2023-02-05T18:24:15.692Z,0.80
2023-02-05T18:26:44.063Z,0.80
2023-02-05T18:29:12.619Z,0.90
2023-02-05T18:31:41.275Z,0.90
2023-02-05T18:34:09.665Z,0.90
2023-02-05T18:36:39.470Z,1.00
2023-02-05T18:39:10.048Z,1.00
2023-02-05T18:41:38.991Z,1.00
2023-02-05T18:44:07.681Z,1.10
2023-02-05T18:46:36.194Z,1.00
2023-02-05T18:49:05.930Z,1.10
2023-02-05T18:51:34.463Z,1.10
2023-02-05T18:54:06.632Z,1.10
2023-02-05T18:56:35.557Z,1.30
2023-02-05T18:59:07.473Z,1.30
2023-02-05T19:01:38.198Z,1.40
2023-02-05T19:04:09.915Z,1.40
2023-02-05T19:06:41.231Z,1.50
2023-02-05T19:09:11.346Z,1.50
2023-02-05T19:11:41.351Z,1.50
2023-02-05T19:14:15.083Z,1.50
2023-02-05T19:16:44.089Z,1.50
2023-02-05T19:19:14.593Z,1.50
2023-02-05T19:21:44.851Z,1.50
2023-02-05T19:24:17.372Z,1.50
2023-02-05T19:26:47.948Z,1.40
2023-02-05T19:29:19.885Z,1.30
2023-02-05T19:31:50.053Z,1.20
2023-02-05T19:34:19.848Z,1.20
2023-02-05T19:36:49.764Z,1.10
2023-02-05T19:39:19.822Z,1.10
2023-02-05T19:41:51.293Z,1.10
2023-02-05T19:44:20.238Z,1.10
2023-02-05T19:46:50.441Z,1.00
2023-02-05T19:49:22.800Z,1.00
2023-02-05T19:51:54.336Z,1.00
2023-02-05T19:54:24.815Z,1.00
2023-02-05T19:56:53.476Z,0.90
2023-02-05T19:59:24.024Z,0.90
2023-02-05T20:01:53.207Z,1.00
2023-02-05T20:04:25.908Z,0.90
2023-02-05T20:06:56.581Z,0.90
2023-02-05T20:09:27.691Z,0.90
2023-02-05T20:11:56.130Z,0.90
2023-02-05T20:14:25.566Z,0.90
2023-02-05T20:16:54.387Z,0.80
2023-02-05T20:19:23.272Z,0.80
2023-02-05T20:21:52.283Z,0.80
2023-02-05T20:24:21.732Z,0.70
2023-02-05T20:26:53.025Z,0.70
2023-02-05T20:29:39.028Z,0.80
2023-02-05T20:32:08.845Z,0.80
2023-02-05T20:34:40.755Z,0.90
2023-02-05T20:37:11.422Z,0.90
2023-02-05T20:39:42.678Z,0.90
2023-02-05T20:42:14.145Z,0.90
2023-02-05T20:44:44.066Z,0.90
2023-02-05T20:47:14.956Z,0.90
2023-02-05T20:49:44.188Z,0.90
2023-02-05T20:52:13.097Z,0.90
2023-02-05T20:54:42.875Z,0.90
2023-02-05T20:57:12.627Z,0.80
2023-02-05T20:59:41.157Z,0.80
2023-02-05T21:02:11.397Z,0.80
2023-02-05T21:04:40.096Z,0.80
2023-02-05T21:07:08.397Z,0.80
2023-02-05T21:09:36.981Z,0.90
2023-02-05T21:12:06.041Z,0.90
2023-02-05T21:14:35.836Z,0.90
2023-02-05T21:17:04.745Z,0.90
2023-02-05T21:19:34.138Z,0.90
2023-02-05T21:22:02.511Z,0.90
2023-02-05T21:24:31.974Z,0.90
2023-02-05T21:27:02.016Z,1.00
2023-02-05T21:29:30.332Z,1.00
2023-02-05T21:32:00.047Z,1.00
2023-02-05T21:34:29.669Z,1.00
2023-02-05T21:36:58.310Z,1.00
2023-02-05T21:39:27.095Z,1.00
2023-02-05T21:41:55.492Z,1.00
2023-02-05T21:44:24.920Z,1.00
2023-02-05T21:46:55.314Z,1.00
2023-02-05T21:49:26.042Z,1.00
2023-02-05T21:51:54.334Z,1.00
2023-02-05T21:54:25.626Z,1.00
2023-02-05T21:56:54.343Z,1.00
2023-02-05T21:59:22.788Z,0.90
2023-02-05T22:01:51.164Z,0.90
2023-02-05T22:04:21.315Z,0.90
2023-02-05T22:06:52.368Z,1.00
2023-02-05T22:09:21.501Z,1.00
2023-02-05T22:11:51.880Z,1.00
2023-02-05T22:14:20.662Z,1.00
2023-02-05T22:16:49.337Z,1.00
2023-02-05T22:19:17.627Z,1.00
2023-02-05T22:21:46.041Z,1.10
2023-02-05T22:24:18.963Z,1.10
2023-02-05T22:26:48.816Z,1.10
2023-02-05T22:29:22.978Z,1.10
2023-02-05T22:31:54.198Z,1.20
2023-02-05T22:34:23.160Z,1.20
2023-02-05T22:36:51.791Z,1.30
2023-02-05T22:39:21.581Z,1.40
2023-02-05T22:41:49.962Z,1.40
2023-02-05T22:44:18.375Z,1.40
2023-02-05T22:46:46.848Z,1.40
2023-02-05T22:49:16.224Z,1.50
2023-02-05T22:51:45.136Z,1.50
2023-02-05T22:54:16.005Z,1.50
2023-02-05T22:56:46.512Z,1.50
2023-02-05T22:59:14.908Z,1.50
2023-02-05T23:01:43.357Z,1.50
2023-02-05T23:04:12.795Z,1.50
2023-02-05T23:06:43.740Z,1.40
2023-02-05T23:09:14.836Z,1.50
2023-02-05T23:11:45.428Z,1.50
2023-02-05T23:14:16.772Z,1.60
2023-02-05T23:16:47.546Z,1.60
2023-02-05T23:19:19.826Z,1.60
2023-02-05T23:21:49.478Z,1.50
2023-02-05T23:24:19.191Z,1.50
2023-02-05T23:26:53.481Z,1.60
2023-02-05T23:29:22.320Z,1.60
2023-02-05T23:31:50.812Z,1.60
2023-02-05T23:34:19.231Z,1.70
2023-02-05T23:36:47.568Z,1.80
2023-02-05T23:39:15.864Z,1.80
2023-02-05T23:41:44.240Z,1.90
2023-02-05T23:44:18.855Z,2.00
2023-02-05T23:46:50.069Z,2.00
2023-02-05T23:49:21.828Z,2.20
2023-02-05T23:51:50.736Z,2.20
2023-02-05T23:54:19.209Z,2.20
2023-02-05T23:56:48.254Z,2.30
2023-02-05T23:59:18.820Z,2.30
